This is the latest recevied weather packets stored in our database for station/object OK4PZ-5. If no packets are shown the sender has not sent any weather packets the latest 10 day(s).
| Time | Temp. | Humidity | Pressure | Rain* | Wind** | Luminosity | Snow |
|---|---|---|---|---|---|---|---|
| 1777022103 | 14.44° C | 45% | 1019 hPa | 0 mm | - | - | - |
| 1777021202 | 13.89° C | 49% | 1020 hPa | 0 mm | - | - | - |
| 1777020302 | 13.89° C | 51% | 1020 hPa | 0 mm | - | - | - |
| 1777019403 | 13.89° C | 53% | 1020 hPa | 0 mm | - | - | - |
| 1777018503 | 12.78° C | 56% | 1020 hPa | 0 mm | - | - | - |
| 1777017603 | 12.78° C | 56% | 1020 hPa | 0 mm | - | - | - |
| 1777016702 | 12.22° C | 58% | 1020 hPa | 0 mm | - | - | - |
| 1777015802 | 12.22° C | 59% | 1020 hPa | 0 mm | - | - | - |
| 1777014902 | 11.11° C | 63% | 1020 hPa | 0 mm | - | - | - |
| 1777014003 | 10.56° C | 63% | 1020 hPa | 0 mm | - | - | - |
| 1777013102 | 10.56° C | 61% | 1020 hPa | 0 mm | - | - | - |
| 1777012202 | 10° C | 63% | 1020 hPa | 0 mm | - | - | - |
| 1777011303 | 9.44° C | 65% | 1020 hPa | 0 mm | - | - | - |
| 1777010403 | 8.89° C | 67% | 1021 hPa | 0 mm | - | - | - |
| 1777009502 | 7.78° C | 70% | 1021 hPa | 0 mm | - | - | - |
| 1777008603 | 6.67° C | 74% | 1021 hPa | 0 mm | - | - | - |
| 1777007703 | 4.44° C | 81% | 1021 hPa | 0 mm | - | - | - |
| 1777006803 | 2.78° C | 84% | 1021 hPa | 0 mm | - | - | - |
| 1777005902 | 2.22° C | 86% | 1021 hPa | 0 mm | - | - | - |
| 1777005002 | 1.67° C | 86% | 1020 hPa | 0 mm | - | - | - |
| 1777004102 | 1.11° C | 87% | 1021 hPa | 0 mm | - | - | - |
| 1777003203 | 1.67° C | 86% | 1020 hPa | 0 mm | - | - | - |
| 1777002303 | 1.67° C | 86% | 1021 hPa | 0 mm | - | - | - |
| 1777001404 | 2.22° C | 84% | 1021 hPa | 0 mm | - | - | - |
| 1777000503 | 2.78° C | 82% | 1020 hPa | 0 mm | - | - | - |
* Rain latest hour (hover to see other rain measurements)
** Current wind speed in m/s (hover to see current wind gust speed)